Impacts METAR Board
IDs:

KSTL - St Louis/Lambert Int, MO, US

Updated at: 0300 UTC 06 Dec 2019
Potential Impact None Slight Moderate High
Time 05/15Z 05/16Z 05/17Z 05/18Z 05/19Z 05/20Z 05/21Z 05/22Z 05/23Z 06/00Z 06/01Z 06/02Z 06/03Z
Temp42 46 49 52 59 61 60 59 59 57 57 55 53
Dewpt36 38 40 39 37 36 37 37 36 36 35 35 36
Altim30.05 30.06 30.04 30.01 29.99 29.96 29.96 29.95 29.96 29.97 29.97 29.96 29.98
VIS9 10 10 10 10 10 10 10 10 10 10 10 10
CIG-- -- -- -- 250 250 150 130 130 120 120 120 110
CoverFEWFEWFEWSCTBKNBKNBKNBKNBKNBKNOVCOVCOVC
FltCatVFRVFRVFRVFRVFRVFRVFRVFRVFRVFRVFRVFRVFR
WX--------------------------
WDir140170180160190160150150180180180180160
WSpd6 6 9 9 8 8 8 8 7 7 8 7 8
WGst-- -- -- -- -- -- -- -- -- -- -- -- --
Raw hourly METARs
KSTL 051451Z COR 14006KT 9SM FEW150 06/02 A3005 RMK AO2 SLP181 T00560022 53009 $
KSTL 051551Z 17006KT 10SM FEW250 08/03 A3006 RMK AO2 SLP184 T00780033 $
KSTL 051651Z 18009KT 10SM FEW250 09/04 A3004 RMK AO2 SLP177 T00940044 $
KSTL 051751Z COR 16009KT 10SM FEW150 SCT250 11/04 A3001 RMK AO2 SLP167 T01110039 10111 21006 58013 $
KSTL 051851Z 19008KT 10SM FEW150 BKN250 15/03 A2999 RMK AO2 SLP158 T01500028 $
KSTL 051951Z 16008KT 10SM FEW150 BKN250 16/02 A2996 RMK AO2 SLP149 T01610022 $
KSTL 052051Z COR 15008KT 10SM BKN150 BKN250 16/03 A2996 RMK AO2 SLP147 T01560028 56017 $
KSTL 052151Z 15008KT 10SM BKN130 BKN250 15/03 A2995 RMK AO2 SLP146 T01500028 $
KSTL 052251Z 18007KT 10SM BKN130 BKN250 15/02 A2996 RMK AO2 SLP148 T01500022 $
KSTL 052351Z COR 18007KT 10SM BKN120 BKN250 14/02 A2997 RMK AO2 SLP152 T01390022 10161 20111 53003 $
KSTL 060051Z 18008KT 10SM OVC120 14/02 A2997 RMK AO2 SLP151 T01390017 $
KSTL 060151Z 18007KT 10SM BKN120 OVC240 13/02 A2996 RMK AO2 SLP151 T01280017 $
KSTL 060251Z 16008KT 10SM OVC110 12/02 A2998 RMK AO2 SLP154 T01170022 53004 $



Page loaded:  03:40 UTC  |   07:40 PM Pacific  |   08:40 PM Mountain  |   09:40 PM Central  |   10:40 PM Eastern

 

ADVISORIES

FORECASTS

FORECASTS

OBSERVATIONS

USER TOOLS

ABOUT US